ADDS METAR Data INFO
IDs: Format: Raw Decoded Include TAF

Data at: 1849 UTC 17 Oct 2017

KBUF 171754Z 23019G33KT 10SM FEW039 FEW250 16/06 A3017 RMK AO2 PK WND 23033/1749 SLP220 T01560061 10161 20028 58022
KBUF 171654Z 24024G31KT 10SM FEW039 FEW055 FEW130 FEW250 16/06 A3019 RMK AO2 PK WND 24031/1650 SLP228 T01560056
KBUF 171554Z 21019KT 10SM FEW039 FEW055 FEW130 FEW250 14/04 A3022 RMK AO2 SLP237 T01390039
KBUF 171454Z 22016G25KT 10SM FEW039 SCT060 SCT130 SCT200 SCT250 12/03 A3024 RMK AO2 SLP243 T01220033 58006 $
KBUF 171354Z 20009KT 10SM FEW042 SCT060 SCT130 SCT200 SCT250 10/03 A3024 RMK AO2 SLP246 T01000033 $
KBUF 171254Z 17008KT 10SM FEW030 SCT046 SCT200 SCT250 07/02 A3026 RMK AO2 SLP252 T00670017 $
KBUF 171154Z 18006KT 10SM FEW030 03/01 A3025 RMK AO2 SLP251 T00280006 10028 20017 58003 $
KBUF 171054Z 17006KT 10SM FEW030 03/00 A3026 RMK AO2 SLP254 T00280000 $
KBUF 170954Z COR 16006KT CLR 10SM 02/00 A3026 RMK AO2 SLP254 T00220000 $
KBUF 170854Z 16005KT 10SM CLR 02/00 A3026 RMK AO2 SLP253 T00170000 58001 $
KBUF 170754Z 15005KT 10SM CLR 02/00 A3026 RMK AO2 SLP254 T00170000 $
KBUF 170654Z 15004KT 10SM CLR 02/00 A3027 RMK AO2 SLP257 T00170000 $
KBUF 170554Z 17004KT 10SM CLR 02/01 A3026 RMK AO2 SLP254 T00220006 10072 20022 55001 $
KBUF 170454Z 14005KT 10SM CLR 03/01 A3026 RMK AO2 SLP253 T00280006 401000028 $
KBUF 170354Z 14005KT 10SM CLR 03/01 A3027 RMK AO2 SLP254 T00330011 $
KBUF 170254Z 14003KT 10SM CLR 04/01 A3027 RMK AO2 SLP254 T00440011 52002 $
KBUF 170154Z 00000KT 10SM CLR 06/02 A3027 RMK AO2 SLP255 T00560017 $
KBUF 170054Z 00000KT 10SM CLR 07/00 A3026 RMK AO2 SLP252 T00670000 $
KBUF 162354Z 31003KT 10SM FEW045 06/01 A3026 RMK AO2 SLP252 T00610006 10100 20061 53012 $
KBUF 162254Z 32004KT 10SM FEW045 07/01 A3025 RMK AO2 SLP249 T00670011
KBUF 162154Z 32008KT 10SM FEW045 09/00 A3023 RMK AO2 SLP242 T00890000
KBUF 162054Z 29007KT 10SM SCT047 09/00 A3023 RMK AO2 SLP239 T00890000 53008
KBUF 161954Z 31010KT 10SM FEW035 SCT047 10/00 A3022 RMK AO2 SLP237 T01000000
KBUF 161854Z 29012KT 10SM FEW035 BKN047 08/00 A3021 RMK AO2 SLP233 T00830000
KBUF 161754Z 32010KT 10SM FEW033 BKN047 09/01 A3020 RMK AO2 SLP231 SHRA DSNT NE-E T00940011 10094 20067 50003
KBUF 161654Z 33012KT 10SM SCT030 BKN047 08/02 A3021 RMK AO2 SLP234 SHRA DSNT NE-E T00780022
KBUF 161554Z 32008KT 10SM FEW026 BKN037 BKN045 08/02 A3020 RMK AO2 SLP231 SHRA DSNT N-E T00830022
KBUF 161454Z 33009KT 10SM SCT024 SCT037 BKN045 09/03 A3019 RMK AO2 SLP226 SHRA DSNT NE-E T00890028 51016
KBUF 161354Z 35008KT 10SM BKN024 BKN037 BKN047 08/03 A3018 RMK AO2 SLP223 T00780033
KBUF 161343Z 34011KT 10SM BKN024 BKN037 BKN047 08/03 A3018 RMK AO2 T00780028
KBUF 161254Z 35006KT 10SM FEW026 FEW037 BKN047 08/03 A3016 RMK AO2 SLP217 T00780028
KBUF 161154Z 34005KT 10SM BKN031 BKN047 07/03 A3014 RMK AO2 SLP209 70015 T00720028 10083 20067 53016
KBUF 161054Z 34005KT 10SM FEW033 BKN045 07/03 A3012 RMK AO2 SLP203 T00720028 $
KBUF 160954Z 34005KT 10SM OVC033 08/03 A3011 RMK AO2 SLP199 T00780033 $
KBUF 160947Z 32004KT 10SM OVC031 08/03 A3011 RMK AO2 T00780033 $
KBUF 160901Z 34006KT 10SM OVC029 08/03 A3010 RMK AO2 T00780028 $
KBUF 160854Z 34008KT 10SM OVC031 08/03 A3010 RMK AO2 SLP193 T00780033 53017 $
KBUF 160809Z 35008KT 10SM OVC031 08/03 A3008 RMK AO2 T00780028 $
KBUF 160754Z 33010KT 10SM FEW023 OVC028 08/03 A3007 RMK AO2 SLP184 T00780028 $
KBUF 160701Z 34010G16KT 10SM OVC028 08/03 A3006 RMK AO2 T00830033 $
KBUF 160654Z 34010KT 10SM SCT026 OVC032 08/03 A3006 RMK AO2 SLP179 T00830033 $